Time;durP1;ratioP1;P1;durP2;ratioP2;P2;SDS_P1;SDS_P2;PMS_P1;PMS_P2;Temp;Humidity;BMP_temperature;BMP_pressure;BME280_temperature;BME280_humidity;BME280_pressure;Samples;Min_cycle;Max_cycle;Signal;HPM_P1;HPM_P2
2023/03/13 00:01:16;;;;;;;1.90;1.30;;;14.30;28.70;;;;;;4992514;28;20962;-69
2023/03/13 00:03:42;;;;;;;1.90;1.20;;;14.40;28.60;;;;;;4991595;28;20466;-69
2023/03/13 00:06:08;;;;;;;1.90;1.20;;;14.50;28.60;;;;;;4992558;28;20968;-69
2023/03/13 00:08:34;;;;;;;1.77;1.10;;;14.40;28.60;;;;;;4991762;28;20230;-69
2023/03/13 00:11:10;;;;;;;1.70;1.10;;;14.50;28.70;;;;;;4992626;28;20468;-69
2023/03/13 00:13:36;;;;;;;1.80;1.10;;;14.20;29.00;;;;;;4990657;28;20190;-69
2023/03/13 00:16:10;;;;;;;1.70;1.10;;;14.40;28.60;;;;;;4986114;28;20475;-69
2023/03/13 00:18:36;;;;;;;1.80;1.20;;;14.30;29.10;;;;;;4989993;28;20189;-69
2023/03/13 00:21:04;;;;;;;2.00;1.30;;;14.50;28.50;;;;;;4991530;28;20957;-69
2023/03/13 00:23:31;;;;;;;1.90;1.27;;;14.30;29.40;;;;;;4992594;28;21175;-69
2023/03/13 00:25:58;;;;;;;1.77;1.10;;;13.90;29.80;;;;;;4990451;28;20446;-68
2023/03/13 00:28:26;;;;;;;1.90;1.20;;;14.20;29.00;;;;;;4992378;28;20943;-69
2023/03/13 00:31:08;;;;;;;1.90;1.30;;;14.40;28.70;;;;;;4990953;28;20529;-69
2023/03/13 00:33:36;;;;;;;2.00;1.40;;;14.50;28.60;;;;;;4987716;28;20430;-68
2023/03/13 00:36:04;;;;;;;1.93;1.30;;;13.80;29.40;;;;;;4989764;28;20461;-68
2023/03/13 00:38:30;;;;;;;1.80;1.13;;;14.00;29.20;;;;;;4991106;28;20432;-69
2023/03/13 00:41:08;;;;;;;1.90;1.20;;;14.40;29.40;;;;;;4992309;28;20409;-68
2023/03/13 00:43:34;;;;;;;1.80;1.20;;;14.60;28.20;;;;;;4990054;28;20829;-69
2023/03/13 00:46:00;;;;;;;1.90;1.23;;;14.70;28.50;;;;;;4991822;28;20436;-69
2023/03/13 00:48:26;;;;;;;1.83;1.20;;;14.50;29.10;;;;;;4989749;28;20459;-69
2023/03/13 00:50:51;;;;;;;1.90;1.20;;;14.80;29.00;;;;;;4991497;28;20448;-69
2023/03/13 00:53:17;;;;;;;2.57;1.47;;;14.90;28.80;;;;;;4989354;28;20212;-69
2023/03/13 00:56:13;;;;;;;1.90;1.20;;;14.50;29.20;;;;;;4989710;28;20230;-69
2023/03/13 00:58:41;;;;;;;1.90;1.20;;;14.60;29.30;;;;;;4991467;28;20193;-69
2023/03/13 01:01:23;;;;;;;1.83;1.20;;;14.60;29.50;;;;;;4990707;28;20425;-68
2023/03/13 01:03:54;;;;;;;1.80;1.20;;;14.80;29.00;;;;;;4990118;28;20469;-68
2023/03/13 01:06:23;;;;;;;1.90;1.30;;;14.40;29.50;;;;;;4989236;28;20448;-68
2023/03/13 01:08:49;;;;;;;1.80;1.10;;;14.20;29.50;;;;;;4991997;28;20415;-68
2023/03/13 01:11:21;;;;;;;1.90;1.30;;;14.20;29.70;;;;;;4991421;28;20418;-68
2023/03/13 01:13:47;;;;;;;1.70;1.10;;;14.10;30.10;;;;;;4991274;28;20905;-68
2023/03/13 01:16:18;;;;;;;1.80;1.20;;;14.10;30.40;;;;;;4987901;28;20487;-70
2023/03/13 01:18:46;;;;;;;1.70;1.10;;;14.40;30.80;;;;;;4991922;28;20930;-70
2023/03/13 01:21:13;;;;;;;1.80;1.20;;;14.00;30.40;;;;;;4988791;28;20421;-70
2023/03/13 01:23:39;;;;;;;1.80;1.13;;;14.10;30.00;;;;;;4991738;28;20465;-70
2023/03/13 01:26:06;;;;;;;1.90;1.30;;;14.10;30.40;;;;;;4986597;28;20464;-70
2023/03/13 01:28:33;;;;;;;2.00;1.30;;;14.20;30.10;;;;;;4992135;28;20858;-69
2023/03/13 01:31:00;;;;;;;1.80;1.20;;;14.40;29.90;;;;;;4991591;28;20407;-70
2023/03/13 01:33:25;;;;;;;1.80;1.20;;;14.20;30.10;;;;;;4991601;28;20426;-70
2023/03/13 01:35:51;;;;;;;1.80;1.20;;;14.30;30.00;;;;;;4985861;28;20456;-70
2023/03/13 01:38:17;;;;;;;1.80;1.20;;;14.50;29.80;;;;;;4989763;28;20194;-70
2023/03/13 01:40:47;;;;;;;1.77;1.10;;;14.80;29.40;;;;;;4991536;28;20639;-70
2023/03/13 01:43:18;;;;;;;1.90;1.27;;;14.80;29.50;;;;;;4987721;28;20445;-70
2023/03/13 01:45:53;;;;;;;1.80;1.10;;;14.90;29.40;;;;;;4993600;28;20442;-69
2023/03/13 01:48:22;;;;;;;2.10;1.43;;;14.80;29.90;;;;;;4990059;28;20793;-70
2023/03/13 01:50:48;;;;;;;1.80;1.13;;;14.70;31.20;;;;;;4994990;28;20426;-70
2023/03/13 01:53:13;;;;;;;1.90;1.20;;;14.10;31.50;;;;;;4993008;28;20438;-70
2023/03/13 01:55:39;;;;;;;1.90;1.30;;;14.40;30.90;;;;;;4994027;28;20195;-70
2023/03/13 01:58:05;;;;;;;1.90;1.23;;;14.90;30.00;;;;;;4993642;28;20200;-70
2023/03/13 02:00:35;;;;;;;1.90;1.20;;;15.10;29.80;;;;;;4990793;28;20192;-71
2023/03/13 02:03:10;;;;;;;2.10;1.33;;;15.10;30.10;;;;;;4995303;28;20171;-72
2023/03/13 02:05:37;;;;;;;1.87;1.17;;;14.90;30.50;;;;;;4993635;28;20446;-72
2023/03/13 02:08:22;;;;;;;1.90;1.30;;;15.10;30.10;;;;;;4992680;28;20943;-71
2023/03/13 02:11:01;;;;;;;1.90;1.20;;;15.00;30.00;;;;;;4991592;28;20430;-72
2023/03/13 02:13:27;;;;;;;1.90;1.20;;;14.60;31.20;;;;;;4994987;28;20406;-72
2023/03/13 02:15:53;;;;;;;1.90;1.30;;;14.60;31.50;;;;;;4991391;28;20967;-70
2023/03/13 02:18:19;;;;;;;1.87;1.20;;;14.50;31.70;;;;;;4994195;28;20480;-71
2023/03/13 02:20:45;;;;;;;1.80;1.20;;;14.70;31.50;;;;;;4991936;28;20450;-71
2023/03/13 02:23:33;;;;;;;1.90;1.20;;;14.70;32.00;;;;;;4990850;28;20666;-71
2023/03/13 02:25:59;;;;;;;1.80;1.10;;;14.90;31.50;;;;;;4993125;28;20439;-71
2023/03/13 02:28:32;;;;;;;1.80;1.13;;;14.70;32.00;;;;;;4993647;28;20451;-71
2023/03/13 02:30:58;;;;;;;1.80;1.20;;;14.90;31.60;;;;;;4992239;28;20794;-71
2023/03/13 02:33:35;;;;;;;1.80;1.10;;;14.90;31.60;;;;;;4991553;28;20952;-71
2023/03/13 02:36:02;;;;;;;3.13;1.30;;;14.90;31.80;;;;;;4990027;28;20498;-71
2023/03/13 02:38:30;;;;;;;1.90;1.30;;;14.80;33.00;;;;;;4992167;28;20436;-71
2023/03/13 02:40:58;;;;;;;1.80;1.10;;;14.80;32.40;;;;;;4991226;28;20915;-71
2023/03/13 02:43:35;;;;;;;1.80;1.10;;;14.90;32.10;;;;;;4992653;28;20414;-71
2023/03/13 02:46:16;;;;;;;1.90;1.27;;;14.70;32.80;;;;;;4993401;28;20419;-71
2023/03/13 02:48:48;;;;;;;1.93;1.30;;;14.70;33.00;;;;;;4988612;28;20939;-71
2023/03/13 02:51:36;;;;;;;1.80;1.20;;;15.00;33.00;;;;;;4989393;28;20475;-69
2023/03/13 02:54:08;;;;;;;1.90;1.30;;;15.10;32.10;;;;;;4992339;28;20969;-69
2023/03/13 02:56:36;;;;;;;1.90;1.20;;;15.00;32.40;;;;;;4993437;28;20490;-69
2023/03/13 02:59:02;;;;;;;1.80;1.10;;;14.90;33.10;;;;;;4993508;28;20448;-69
2023/03/13 03:01:27;;;;;;;1.90;1.30;;;14.60;34.40;;;;;;4991467;28;20441;-69
2023/03/13 03:03:53;;;;;;;1.90;1.27;;;14.40;34.60;;;;;;4993971;28;20572;-69
2023/03/13 03:06:19;;;;;;;1.93;1.30;;;14.40;34.60;;;;;;4993011;28;20312;-69
2023/03/13 03:08:44;;;;;;;1.80;1.20;;;14.80;34.00;;;;;;4993589;28;20189;-69
2023/03/13 03:11:10;;;;;;;1.80;1.10;;;14.90;33.00;;;;;;4989548;28;20177;-69
2023/03/13 03:13:36;;;;;;;1.80;1.10;;;14.90;33.20;;;;;;4989718;28;20741;-69
2023/03/13 03:16:06;;;;;;;1.87;1.20;;;14.70;33.40;;;;;;4993717;28;20539;-69
2023/03/13 03:18:32;;;;;;;1.93;1.27;;;14.40;34.40;;;;;;4989343;28;20186;-69
2023/03/13 03:20:57;;;;;;;1.90;1.30;;;14.70;33.10;;;;;;4991845;28;20460;-69
2023/03/13 03:23:23;;;;;;;1.90;1.20;;;14.70;33.70;;;;;;4990639;28;20193;-69
2023/03/13 03:25:49;;;;;;;1.80;1.10;;;14.90;32.30;;;;;;4993200;28;20603;-69
2023/03/13 03:28:14;;;;;;;1.80;1.20;;;15.10;31.60;;;;;;4993574;28;20170;-70
2023/03/13 03:30:40;;;;;;;1.80;1.10;;;15.10;31.70;;;;;;4992592;28;20213;-69
2023/03/13 03:33:05;;;;;;;1.90;1.30;;;15.10;32.10;;;;;;4990472;28;20266;-69
2023/03/13 03:35:32;;;;;;;1.80;1.20;;;15.00;31.90;;;;;;4992474;28;20231;-69
2023/03/13 03:37:58;;;;;;;1.80;1.13;;;15.50;31.10;;;;;;4993239;28;20310;-69
2023/03/13 03:40:24;;;;;;;1.90;1.23;;;14.90;32.10;;;;;;4993004;28;20913;-69
2023/03/13 03:42:49;;;;;;;1.80;1.20;;;14.90;32.60;;;;;;4990313;28;20707;-69
2023/03/13 03:45:15;;;;;;;1.93;1.27;;;14.70;33.40;;;;;;4989081;28;20693;-69
2023/03/13 03:47:40;;;;;;;1.80;1.20;;;14.80;33.20;;;;;;4991159;28;20186;-69
2023/03/13 03:50:07;;;;;;;2.27;1.23;;;14.70;33.70;;;;;;4992039;28;20185;-69
2023/03/13 03:52:32;;;;;;;1.90;1.20;;;14.70;33.40;;;;;;4992863;28;20518;-69
2023/03/13 03:54:58;;;;;;;1.80;1.20;;;14.90;33.70;;;;;;4989247;28;20465;-69
2023/03/13 03:57:24;;;;;;;1.83;1.20;;;15.20;34.20;;;;;;4991884;28;20240;-69
2023/03/13 03:59:49;;;;;;;1.90;1.20;;;15.20;34.50;;;;;;4991948;28;20207;-69
2023/03/13 04:02:15;;;;;;;1.80;1.20;;;15.00;34.30;;;;;;4992691;28;20826;-69
2023/03/13 04:04:41;;;;;;;1.90;1.20;;;14.80;34.50;;;;;;4992511;28;20219;-69
2023/03/13 04:07:07;;;;;;;1.87;1.20;;;14.80;34.60;;;;;;4988955;28;20519;-69
2023/03/13 04:09:32;;;;;;;1.90;1.20;;;14.40;36.40;;;;;;4991257;28;20189;-69
2023/03/13 04:11:58;;;;;;;1.80;1.20;;;14.60;35.60;;;;;;4992739;28;20166;-69
2023/03/13 04:14:24;;;;;;;1.80;1.17;;;15.10;34.50;;;;;;4990672;28;20243;-71
2023/03/13 04:16:49;;;;;;;1.90;1.30;;;15.20;34.00;;;;;;4988302;28;20601;-69
2023/03/13 04:19:15;;;;;;;1.80;1.20;;;15.50;33.30;;;;;;4987488;28;20182;-69
2023/03/13 04:21:41;;;;;;;1.90;1.20;;;15.20;33.90;;;;;;4990854;28;20646;-70
2023/03/13 04:24:06;;;;;;;1.80;1.20;;;15.20;34.10;;;;;;4990885;28;20205;-69
2023/03/13 04:26:32;;;;;;;1.90;1.30;;;15.50;33.60;;;;;;4990586;28;20193;-69
2023/03/13 04:28:58;;;;;;;1.93;1.30;;;15.60;33.10;;;;;;4990635;28;20260;-69
2023/03/13 04:31:23;;;;;;;1.90;1.20;;;15.60;33.20;;;;;;4990774;28;20184;-69
2023/03/13 04:33:49;;;;;;;1.90;1.20;;;15.40;33.70;;;;;;4991576;28;20205;-70
2023/03/13 04:36:14;;;;;;;1.97;1.30;;;15.30;33.70;;;;;;4991294;28;20567;-69
2023/03/13 04:38:40;;;;;;;1.80;1.20;;;15.50;33.60;;;;;;4989237;28;20641;-69
2023/03/13 04:41:05;;;;;;;3.03;1.67;;;15.40;33.30;;;;;;4991390;28;20198;-69
2023/03/13 04:43:31;;;;;;;1.80;1.10;;;15.30;33.60;;;;;;4990968;28;20273;-69
2023/03/13 04:45:56;;;;;;;2.00;1.40;;;15.40;33.00;;;;;;4990916;28;20225;-69
2023/03/13 04:48:22;;;;;;;1.90;1.20;;;15.50;32.90;;;;;;4987725;28;20263;-69
2023/03/13 04:50:48;;;;;;;2.50;1.47;;;15.50;33.10;;;;;;4990670;28;20166;-69
2023/03/13 04:53:14;;;;;;;2.03;1.33;;;15.30;33.70;;;;;;4991149;28;20189;-69
2023/03/13 04:55:40;;;;;;;1.80;1.10;;;15.20;33.60;;;;;;4989963;28;20464;-69
2023/03/13 04:58:05;;;;;;;1.70;1.10;;;15.40;33.40;;;;;;4990867;28;20185;-69
2023/03/13 05:00:31;;;;;;;1.80;1.10;;;15.60;32.60;;;;;;4988117;28;20424;-69
2023/03/13 05:02:57;;;;;;;1.80;1.20;;;14.90;34.60;;;;;;4989996;28;20188;-69
2023/03/13 05:05:22;;;;;;;1.90;1.20;;;14.80;34.60;;;;;;5021143;23;20227;-68
2023/03/13 05:07:48;;;;;;;1.90;1.20;;;15.00;34.70;;;;;;4976398;28;20547;-68
2023/03/13 05:10:14;;;;;;;2.10;1.40;;;15.30;33.80;;;;;;4965953;28;20182;-69
2023/03/13 05:12:39;;;;;;;1.83;1.13;;;15.50;33.50;;;;;;4968001;28;20274;-69
2023/03/13 05:15:05;;;;;;;1.80;1.20;;;15.40;33.60;;;;;;4968797;28;20206;-70
2023/03/13 05:17:31;;;;;;;1.90;1.20;;;15.10;34.30;;;;;;4970730;28;20321;-69
2023/03/13 05:19:56;;;;;;;1.80;1.20;;;15.20;34.30;;;;;;4970739;28;20520;-69
2023/03/13 05:22:22;;;;;;;1.90;1.20;;;15.50;33.20;;;;;;4973523;28;20309;-69
2023/03/13 05:24:48;;;;;;;1.90;1.20;;;15.50;33.40;;;;;;4974941;28;20281;-69
2023/03/13 05:27:13;;;;;;;1.80;1.20;;;15.70;33.00;;;;;;4975796;28;20175;-69
2023/03/13 05:29:39;;;;;;;1.80;1.10;;;14.80;35.30;;;;;;4975861;28;20186;-69
2023/03/13 05:32:05;;;;;;;1.80;1.20;;;14.70;35.90;;;;;;4972516;28;20179;-69
2023/03/13 05:34:30;;;;;;;1.90;1.27;;;14.40;36.40;;;;;;4973835;28;20585;-69
2023/03/13 05:36:56;;;;;;;2.83;1.80;;;14.60;36.60;;;;;;4975394;28;20777;-69
2023/03/13 05:39:21;;;;;;;1.90;1.20;;;14.50;36.50;;;;;;4975929;28;20184;-69
2023/03/13 05:41:47;;;;;;;1.80;1.20;;;14.40;36.80;;;;;;4973581;28;20184;-69
2023/03/13 05:44:13;;;;;;;1.90;1.20;;;14.40;36.90;;;;;;4974155;28;20208;-69
2023/03/13 05:46:38;;;;;;;1.83;1.20;;;15.10;35.60;;;;;;4975337;28;20290;-69
2023/03/13 05:49:04;;;;;;;1.83;1.20;;;15.20;35.20;;;;;;4975791;28;20585;-69
2023/03/13 05:51:30;;;;;;;1.90;1.30;;;15.20;35.40;;;;;;4974006;28;20279;-69
2023/03/13 05:53:55;;;;;;;1.90;1.20;;;14.80;36.80;;;;;;4973118;28;20235;-69
2023/03/13 05:56:21;;;;;;;1.80;1.20;;;14.60;36.70;;;;;;4973676;28;20214;-69
2023/03/13 05:58:46;;;;;;;1.90;1.20;;;14.80;36.80;;;;;;4972408;28;20191;-69
2023/03/13 06:01:12;;;;;;;1.80;1.10;;;14.80;36.80;;;;;;4974995;28;20184;-69
2023/03/13 06:03:38;;;;;;;1.97;1.30;;;14.70;37.40;;;;;;4971807;28;20258;-69
2023/03/13 06:06:04;;;;;;;1.90;1.30;;;14.60;38.00;;;;;;4974354;28;20573;-70
2023/03/13 06:08:31;;;;;;;2.93;1.30;;;14.80;37.60;;;;;;4975519;28;20175;-69
2023/03/13 06:11:00;;;;;;;1.90;1.20;;;14.50;38.70;;;;;;4975430;28;20449;-69
2023/03/13 06:13:26;;;;;;;1.80;1.20;;;14.30;40.00;;;;;;4972959;28;20970;-69
2023/03/13 06:15:54;;;;;;;1.80;1.20;;;14.40;39.50;;;;;;4974089;28;20532;-69
2023/03/13 06:18:20;;;;;;;1.80;1.10;;;14.50;40.00;;;;;;4974397;28;20437;-69
2023/03/13 06:20:46;;;;;;;1.90;1.30;;;14.60;40.40;;;;;;4975207;28;20772;-69
2023/03/13 06:23:12;;;;;;;1.80;1.20;;;14.50;39.60;;;;;;4974507;28;20206;-69
2023/03/13 06:25:38;;;;;;;1.70;1.10;;;14.50;39.90;;;;;;4964772;28;20535;-70
2023/03/13 06:28:03;;;;;;;1.90;1.27;;;14.60;39.60;;;;;;4968942;28;20184;-69
2023/03/13 06:30:29;;;;;;;1.80;1.10;;;15.10;38.30;;;;;;4974454;28;20279;-69
2023/03/13 06:32:54;;;;;;;1.80;1.10;;;15.00;38.00;;;;;;4970122;28;20249;-70
2023/03/13 06:35:20;;;;;;;1.90;1.20;;;14.90;38.90;;;;;;4972939;28;20209;-69
2023/03/13 06:37:45;;;;;;;1.90;1.20;;;15.10;37.90;;;;;;4974763;28;20185;-69
2023/03/13 06:40:11;;;;;;;1.83;1.20;;;14.90;38.80;;;;;;4974788;28;20280;-69
2023/03/13 06:42:37;;;;;;;1.80;1.20;;;14.90;38.90;;;;;;4970131;28;20195;-70
2023/03/13 06:45:03;;;;;;;1.90;1.30;;;14.70;39.10;;;;;;4972065;28;20509;-70
2023/03/13 06:47:32;;;;;;;1.80;1.20;;;14.40;41.00;;;;;;4971313;28;20278;-70
2023/03/13 06:49:58;;;;;;;1.90;1.20;;;14.30;41.90;;;;;;4973643;28;20403;-70
2023/03/13 06:52:24;;;;;;;2.03;1.40;;;14.60;41.70;;;;;;4974345;28;20426;-70
2023/03/13 06:54:50;;;;;;;1.80;1.20;;;14.80;40.00;;;;;;4971326;28;20843;-70
2023/03/13 06:57:15;;;;;;;1.90;1.20;;;14.80;40.00;;;;;;4974009;28;20484;-70
2023/03/13 06:59:41;;;;;;;1.80;1.13;;;15.00;39.50;;;;;;4974400;28;20551;-70
2023/03/13 07:02:10;;;;;;;1.90;1.30;;;14.70;40.30;;;;;;4968599;28;20201;-70
2023/03/13 07:04:36;;;;;;;1.80;1.20;;;15.20;39.20;;;;;;4967099;28;20305;-70
2023/03/13 07:07:02;;;;;;;1.80;1.10;;;14.90;39.50;;;;;;4974384;28;20453;-70
2023/03/13 07:09:27;;;;;;;1.70;1.03;;;14.80;40.30;;;;;;4974451;28;20169;-70
2023/03/13 07:11:53;;;;;;;1.90;1.30;;;14.30;42.20;;;;;;4969076;28;20191;-73
2023/03/13 07:14:19;;;;;;;2.20;1.40;;;14.30;42.30;;;;;;4972886;28;20189;-73
2023/03/13 07:16:45;;;;;;;1.90;1.30;;;14.60;41.70;;;;;;4974016;28;20454;-73
2023/03/13 07:19:11;;;;;;;1.90;1.20;;;15.10;40.00;;;;;;4971106;28;20662;-73
2023/03/13 07:21:37;;;;;;;1.90;1.23;;;15.30;39.70;;;;;;4970551;28;20430;-73
2023/03/13 07:24:02;;;;;;;1.80;1.13;;;15.00;40.20;;;;;;4970411;28;20700;-70
2023/03/13 07:26:28;;;;;;;1.87;1.20;;;15.30;39.90;;;;;;4970101;28;20206;-70
2023/03/13 07:28:55;;;;;;;1.90;1.30;;;15.10;40.20;;;;;;4973646;28;20421;-73
2023/03/13 07:31:22;;;;;;;1.83;1.20;;;15.20;40.00;;;;;;4974997;28;20163;-69
2023/03/13 07:33:51;;;;;;;1.80;1.20;;;15.30;40.00;;;;;;4967192;28;22283;-68
2023/03/13 07:36:16;;;;;;;1.80;1.10;;;14.90;41.00;;;;;;4968183;28;20460;-69
2023/03/13 07:38:42;;;;;;;1.80;1.10;;;15.20;41.70;;;;;;4973837;28;20832;-68
2023/03/13 07:41:12;;;;;;;1.90;1.30;;;15.40;41.00;;;;;;4973859;28;20181;-68
2023/03/13 07:43:37;;;;;;;1.80;1.20;;;15.50;39.30;;;;;;4970588;28;20852;-68
2023/03/13 07:46:05;;;;;;;1.77;1.10;;;15.40;39.60;;;;;;4971766;28;20472;-67
2023/03/13 07:48:39;;;;;;;1.83;1.20;;;15.40;40.50;;;;;;4968800;28;20194;-68
2023/03/13 07:51:07;;;;;;;1.80;1.20;;;15.60;40.00;;;;;;4970618;28;20470;-68
2023/03/13 07:53:33;;;;;;;1.80;1.27;;;15.30;40.70;;;;;;4972896;28;20422;-68
2023/03/13 07:56:01;;;;;;;1.80;1.20;;;15.60;40.40;;;;;;4973986;28;21159;-68
2023/03/13 07:58:29;;;;;;;1.97;1.30;;;16.10;39.00;;;;;;4973853;28;20503;-68
2023/03/13 08:00:55;;;;;;;1.70;1.10;;;16.70;37.30;;;;;;4970133;28;20963;-68
2023/03/13 08:03:22;;;;;;;1.70;1.10;;;16.40;38.30;;;;;;4970698;28;20453;-68
2023/03/13 08:06:00;;;;;;;1.83;1.23;;;15.70;40.10;;;;;;4973282;28;20501;-69
2023/03/13 08:08:25;;;;;;;2.00;1.40;;;15.60;41.10;;;;;;4973634;28;20867;-68
2023/03/13 08:10:51;;;;;;;1.80;1.20;;;15.80;40.00;;;;;;4969372;28;20506;-69
2023/03/13 08:13:16;;;;;;;1.90;1.30;;;15.80;39.90;;;;;;4971948;28;20185;-69
2023/03/13 08:15:42;;;;;;;1.80;1.10;;;16.10;39.30;;;;;;4973162;28;20559;-69
2023/03/13 08:18:08;;;;;;;1.80;1.20;;;16.10;39.30;;;;;;4973275;28;20175;-68
2023/03/13 08:20:33;;;;;;;1.83;1.20;;;16.00;39.90;;;;;;4973469;28;20184;-68
2023/03/13 08:22:59;;;;;;;1.80;1.10;;;15.60;40.60;;;;;;4967115;28;20186;-68
2023/03/13 08:25:24;;;;;;;2.20;1.60;;;15.40;41.70;;;;;;4972288;28;20215;-68
2023/03/13 08:27:50;;;;;;;1.90;1.20;;;15.30;42.20;;;;;;4972382;28;20196;-68
2023/03/13 08:30:16;;;;;;;1.80;1.13;;;15.80;41.00;;;;;;4972967;28;20642;-69
2023/03/13 08:32:42;;;;;;;1.80;1.20;;;16.20;39.50;;;;;;4971597;28;20190;-69
2023/03/13 08:35:07;;;;;;;1.80;1.20;;;16.00;39.60;;;;;;4971909;28;20453;-68
2023/03/13 08:37:33;;;;;;;1.73;1.10;;;16.60;38.60;;;;;;4972324;28;20616;-69
2023/03/13 08:39:59;;;;;;;1.83;1.20;;;16.90;37.70;;;;;;4970665;28;20189;-69
2023/03/13 08:42:24;;;;;;;1.80;1.13;;;16.50;38.40;;;;;;4972875;28;20179;-69
2023/03/13 08:44:50;;;;;;;1.80;1.10;;;16.90;38.00;;;;;;4971303;28;20229;-69
2023/03/13 08:47:17;;;;;;;2.17;1.53;;;17.00;37.60;;;;;;4971689;28;20236;-69
2023/03/13 08:49:43;;;;;;;1.90;1.30;;;16.60;38.50;;;;;;4972024;28;20692;-69
2023/03/13 08:52:08;;;;;;;1.80;1.20;;;16.70;38.60;;;;;;4972212;28;20471;-69
2023/03/13 08:54:34;;;;;;;1.80;1.27;;;17.10;38.00;;;;;;4968168;28;20441;-69
2023/03/13 08:56:59;;;;;;;1.70;1.10;;;16.60;38.50;;;;;;4973709;28;20172;-70
2023/03/13 08:59:25;;;;;;;2.00;1.30;;;16.60;38.90;;;;;;4973263;28;20640;-69
2023/03/13 09:01:51;;;;;;;1.70;1.10;;;16.60;39.10;;;;;;4969801;28;20197;-69
2023/03/13 09:04:17;;;;;;;1.70;1.10;;;16.60;39.00;;;;;;4968836;28;20494;-69
2023/03/13 09:06:42;;;;;;;1.80;1.27;;;16.30;40.40;;;;;;4970514;28;20553;-69
2023/03/13 09:09:09;;;;;;;1.80;1.27;;;16.50;39.90;;;;;;4972669;28;20416;-69
2023/03/13 09:11:36;;;;;;;1.90;1.30;;;16.50;39.90;;;;;;4972607;28;20183;-69
2023/03/13 09:14:02;;;;;;;1.70;1.10;;;16.70;38.60;;;;;;4969940;28;20793;-68
2023/03/13 09:16:30;;;;;;;1.83;1.23;;;16.80;38.70;;;;;;4972074;28;20464;-69
2023/03/13 09:18:56;;;;;;;1.80;1.20;;;16.40;39.80;;;;;;4972632;28;20174;-69
2023/03/13 09:21:34;;;;;;;1.80;1.20;;;17.00;38.80;;;;;;4963764;28;20438;-69
2023/03/13 09:24:00;;;;;;;1.70;1.10;;;17.40;37.40;;;;;;4970750;28;21010;-69
2023/03/13 09:26:26;;;;;;;1.83;1.30;;;17.10;37.70;;;;;;4972237;28;20429;-69
2023/03/13 09:28:53;;;;;;;1.80;1.20;;;17.00;38.40;;;;;;4972097;28;20487;-69
2023/03/13 09:31:32;;;;;;;2.00;1.40;;;17.30;37.40;;;;;;4969546;28;20428;-69
2023/03/13 09:33:58;;;;;;;1.80;1.20;;;17.70;36.80;;;;;;4968717;28;20441;-69
2023/03/13 09:36:25;;;;;;;1.90;1.30;;;16.90;38.80;;;;;;4970035;28;20914;-69
2023/03/13 09:38:53;;;;;;;2.70;1.40;;;17.70;37.90;;;;;;4971066;28;20475;-69
2023/03/13 09:41:40;;;;;;;1.90;1.30;;;18.10;35.60;;;;;;4970253;28;20497;-69
2023/03/13 09:44:39;;;;;;;1.90;1.20;;;17.70;36.40;;;;;;4964263;28;20457;-69
2023/03/13 09:47:28;;;;;;;2.00;1.30;;;17.70;36.80;;;;;;4928623;29;20476;-69
2023/03/13 09:50:02;;;;;;;1.80;1.10;;;17.70;35.90;;;;;;4925595;29;20447;-71
2023/03/13 09:52:32;;;;;;;1.90;1.20;;;17.40;36.80;;;;;;4926725;29;20451;-70
2023/03/13 09:55:08;;;;;;;1.97;1.20;;;18.10;35.30;;;;;;4929333;29;20521;-70
2023/03/13 09:57:39;;;;;;;1.90;1.20;;;18.40;33.90;;;;;;4931277;29;20439;-69
2023/03/13 10:00:39;;;;;;;2.10;1.20;;;18.20;34.00;;;;;;4931565;29;20457;-69
2023/03/13 10:03:10;;;;;;;2.00;1.10;;;18.00;34.00;;;;;;4925979;29;20454;-69
2023/03/13 10:05:47;;;;;;;2.10;1.20;;;17.50;33.50;;;;;;4929030;29;20500;-69
2023/03/13 10:08:23;;;;;;;2.17;1.27;;;17.60;33.20;;;;;;4934990;29;20412;-69
2023/03/13 10:11:13;;;;;;;2.00;1.20;;;17.40;33.60;;;;;;4916100;29;20955;-69
2023/03/13 10:14:17;;;;;;;2.00;1.20;;;17.20;34.60;;;;;;4919051;29;20484;-69
2023/03/13 10:17:10;;;;;;;2.10;1.20;;;17.70;33.60;;;;;;4932229;29;20479;-68
2023/03/13 10:19:42;;;;;;;2.30;1.20;;;18.10;33.10;;;;;;4928694;29;20419;-69
2023/03/13 10:22:14;;;;;;;2.40;1.30;;;18.70;31.30;;;;;;4935807;29;20890;-69
2023/03/13 10:24:53;;;;;;;2.30;1.30;;;18.70;30.60;;;;;;4975619;28;20472;-69
2023/03/13 10:27:18;;;;;;;2.57;1.30;;;19.00;30.00;;;;;;4974112;28;20439;-69
2023/03/13 10:29:44;;;;;;;2.30;1.20;;;19.40;29.30;;;;;;4975626;28;20944;-68
2023/03/13 10:32:13;;;;;;;3.13;1.37;;;18.80;30.20;;;;;;4975347;28;20478;-68
2023/03/13 10:34:56;;;;;;;2.50;1.30;;;19.10;29.30;;;;;;4971538;28;20290;-69
2023/03/13 10:37:28;;;;;;;2.47;1.30;;;19.30;29.50;;;;;;4972290;28;20441;-68
2023/03/13 10:40:09;;;;;;;2.50;1.20;;;18.80;29.80;;;;;;4976054;28;20445;-67
2023/03/13 10:42:44;;;;;;;2.60;1.30;;;18.80;30.60;;;;;;4978057;28;20457;-68
2023/03/13 10:45:15;;;;;;;2.50;1.10;;;19.80;29.10;;;;;;4981145;28;20457;-67
2023/03/13 10:47:40;;;;;;;2.60;1.23;;;19.90;28.10;;;;;;4982124;28;20401;-69
2023/03/13 10:50:06;;;;;;;2.60;1.13;;;19.80;28.10;;;;;;4981675;28;20426;-74
2023/03/13 10:52:41;;;;;;;2.63;1.17;;;19.80;28.50;;;;;;4973772;28;20287;-68
2023/03/13 10:55:18;;;;;;;2.73;1.30;;;20.60;27.00;;;;;;4973292;28;20479;-69
2023/03/13 10:58:04;;;;;;;2.80;1.30;;;20.90;26.80;;;;;;4972779;28;20808;-69
2023/03/13 11:00:38;;;;;;;2.87;1.30;;;21.10;26.80;;;;;;4973122;28;20448;-70
2023/03/13 11:03:18;;;;;;;3.10;1.40;;;20.80;27.40;;;;;;4971651;28;20432;-69
2023/03/13 11:05:57;;;;;;;2.90;1.20;;;20.70;27.20;;;;;;4974979;28;20499;-69
2023/03/13 11:08:32;;;;;;;2.90;1.20;;;21.80;27.30;;;;;;4975213;28;20835;-69
2023/03/13 11:11:00;;;;;;;3.10;1.20;;;22.70;24.60;;;;;;4993530;23;20587;-69
2023/03/13 11:13:33;;;;;;;3.00;1.13;;;23.40;23.90;;;;;;4972473;28;20792;-69
2023/03/13 11:16:09;;;;;;;2.90;1.13;;;24.10;23.00;;;;;;4977048;28;20402;-69
2023/03/13 11:18:38;;;;;;;3.37;1.30;;;23.50;23.20;;;;;;4973141;28;20433;-69
2023/03/13 11:21:05;;;;;;;3.00;1.20;;;23.40;23.80;;;;;;4973895;28;20446;-69
2023/03/13 11:23:39;;;;;;;3.00;1.20;;;23.90;23.60;;;;;;4971652;28;20430;-69
2023/03/13 11:26:35;;;;;;;2.90;1.20;;;22.50;24.50;;;;;;4971677;28;20994;-70
2023/03/13 11:29:18;;;;;;;6.77;1.60;;;23.40;23.60;;;;;;4974594;28;20405;-69
2023/03/13 11:31:49;;;;;;;3.80;1.60;;;23.70;23.00;;;;;;4973546;28;20955;-69
2023/03/13 11:34:25;;;;;;;11.10;1.60;;;23.00;23.90;;;;;;4972426;28;20446;-69
2023/03/13 11:37:13;;;;;;;2.90;1.20;;;23.40;23.60;;;;;;4988258;28;20434;-69
2023/03/13 11:39:54;;;;;;;2.90;1.20;;;23.80;22.80;;;;;;4973838;28;20516;-69
2023/03/13 11:42:44;;;;;;;2.80;1.10;;;23.10;24.00;;;;;;4973276;28;20432;-68
2023/03/13 11:45:34;;;;;;;2.80;1.10;;;23.30;23.20;;;;;;4968262;28;20457;-71
2023/03/13 11:48:15;;;;;;;2.90;1.20;;;23.90;22.90;;;;;;4972958;28;20456;-70
2023/03/13 11:51:11;;;;;;;2.97;1.20;;;23.50;23.30;;;;;;4972269;28;20484;-69
2023/03/13 11:53:49;;;;;;;3.00;1.20;;;24.40;22.50;;;;;;4973431;28;20437;-70
2023/03/13 11:56:21;;;;;;;3.20;1.30;;;24.90;21.50;;;;;;4972938;28;20944;-69
2023/03/13 11:59:02;;;;;;;3.10;1.10;;;26.30;19.70;;;;;;4973931;28;20505;-70
2023/03/13 12:01:39;;;;;;;3.20;1.20;;;26.90;18.60;;;;;;4972355;28;20437;-69
2023/03/13 12:04:26;;;;;;;3.20;1.10;;;27.10;18.60;;;;;;4972053;28;20522;-70
2023/03/13 12:07:15;;;;;;;3.30;1.10;;;28.00;17.30;;;;;;4967152;28;20457;-69
2023/03/13 12:09:44;;;;;;;3.60;1.20;;;27.80;17.30;;;;;;4973624;28;20449;-70
2023/03/13 12:12:32;;;;;;;3.60;1.17;;;27.70;17.30;;;;;;4971072;28;20446;-66
2023/03/13 12:15:26;;;;;;;3.70;1.10;;;27.00;17.90;;;;;;4972736;28;20541;-69
2023/03/13 12:18:04;;;;;;;4.97;1.30;;;27.30;17.80;;;;;;4978014;28;20413;-71
2023/03/13 12:21:07;;;;;;;3.70;1.10;;;27.80;16.90;;;;;;4973196;28;20425;-70
2023/03/13 12:23:47;;;;;;;3.77;1.10;;;27.30;17.10;;;;;;4970303;28;20796;-70
2023/03/13 12:26:16;;;;;;;3.70;1.20;;;26.00;18.80;;;;;;4975782;28;20469;-70
2023/03/13 12:28:47;;;;;;;3.90;1.20;;;25.50;18.70;;;;;;4972325;28;20988;-70
2023/03/13 12:31:23;;;;;;;4.33;1.20;;;25.70;18.20;;;;;;4973010;28;20458;-70
2023/03/13 12:34:11;;;;;;;3.50;1.10;;;25.50;18.60;;;;;;4971619;28;20456;-70
2023/03/13 12:36:47;;;;;;;4.10;1.30;;;24.70;18.90;;;;;;4973792;28;20414;-69
2023/03/13 12:39:36;;;;;;;3.60;1.10;;;25.40;18.10;;;;;;4973502;28;20417;-68
2023/03/13 12:42:34;;;;;;;3.80;1.10;;;25.60;18.10;;;;;;4972321;28;20524;-69
2023/03/13 12:45:00;;;;;;;3.70;1.20;;;26.20;17.00;;;;;;4970642;28;20453;-69
2023/03/13 12:47:49;;;;;;;3.67;1.13;;;26.90;16.80;;;;;;4973423;28;20422;-69
2023/03/13 12:50:32;;;;;;;3.70;1.20;;;26.20;17.60;;;;;;4973212;28;20190;-68
2023/03/13 12:53:15;;;;;;;3.70;1.20;;;27.00;15.90;;;;;;4972442;28;20769;-69
2023/03/13 12:55:55;;;;;;;3.80;1.30;;;27.00;15.40;;;;;;4971186;28;20438;-69
2023/03/13 12:58:23;;;;;;;4.00;1.23;;;26.90;15.20;;;;;;4970195;28;20443;-68
2023/03/13 13:00:50;;;;;;;4.47;1.30;;;26.80;15.80;;;;;;4973285;28;20434;-70
2023/03/13 13:03:50;;;;;;;3.90;1.30;;;27.20;15.00;;;;;;4971803;28;20484;-69